createdAt,value
2017-08-14T00:01:18.950Z,22.50
2017-08-14T00:03:46.478Z,22.50
2017-08-14T00:06:13.982Z,22.50
2017-08-14T00:08:41.504Z,22.50
2017-08-14T00:11:09.033Z,22.50
2017-08-14T00:13:36.545Z,22.50
2017-08-14T00:16:04.064Z,22.50
2017-08-14T00:18:31.573Z,22.50
2017-08-14T00:20:59.109Z,22.50
2017-08-14T00:23:26.622Z,22.50
2017-08-14T00:25:54.109Z,22.40
2017-08-14T00:28:21.638Z,22.40
2017-08-14T00:30:49.140Z,22.40
2017-08-14T00:33:16.680Z,22.30
2017-08-14T00:35:44.195Z,22.30
2017-08-14T00:38:11.712Z,22.30
2017-08-14T00:40:39.279Z,22.20
2017-08-14T00:43:06.811Z,22.10
2017-08-14T00:45:34.378Z,22.10
2017-08-14T00:48:01.904Z,22.10
2017-08-14T00:50:29.395Z,22.10
2017-08-14T00:52:56.944Z,22.00
2017-08-14T00:55:24.459Z,22.00
2017-08-14T00:57:51.954Z,22.00
2017-08-14T01:00:19.521Z,22.00
2017-08-14T01:02:47.015Z,21.90
2017-08-14T01:05:14.545Z,21.90
2017-08-14T01:07:42.125Z,21.90
2017-08-14T01:10:09.613Z,21.90
2017-08-14T01:12:37.162Z,21.90
2017-08-14T01:15:04.732Z,21.90
2017-08-14T01:17:32.227Z,21.90
2017-08-14T01:19:59.764Z,21.90
2017-08-14T01:22:27.261Z,21.90
2017-08-14T01:24:54.805Z,21.80
2017-08-14T01:27:22.303Z,21.90
2017-08-14T01:29:49.781Z,21.80
2017-08-14T01:32:17.665Z,21.80
2017-08-14T01:34:45.155Z,21.70
2017-08-14T01:37:12.659Z,21.70
2017-08-14T01:39:40.574Z,21.80
2017-08-14T01:42:08.063Z,21.80
2017-08-14T01:44:35.562Z,21.80
2017-08-14T01:47:03.126Z,21.80
2017-08-14T01:49:30.635Z,21.80
2017-08-14T01:51:58.162Z,21.70
2017-08-14T01:54:25.695Z,21.80
2017-08-14T01:56:53.278Z,21.70
2017-08-14T01:59:20.774Z,21.70
2017-08-14T02:01:48.287Z,21.70
2017-08-14T02:04:15.823Z,21.70
2017-08-14T02:06:43.327Z,21.60
2017-08-14T02:09:10.893Z,21.50
2017-08-14T02:11:38.406Z,21.40
2017-08-14T02:14:05.924Z,21.40
2017-08-14T02:16:33.474Z,21.30
2017-08-14T02:19:00.968Z,21.30
2017-08-14T02:21:28.493Z,21.30
2017-08-14T02:23:56.000Z,21.40
2017-08-14T02:26:23.514Z,21.40
2017-08-14T02:28:51.067Z,21.50
2017-08-14T02:31:18.635Z,21.50
2017-08-14T02:33:46.135Z,21.40
2017-08-14T02:36:14.306Z,21.40
2017-08-14T02:38:41.967Z,21.50
2017-08-14T02:41:09.464Z,21.50
2017-08-14T02:43:36.965Z,21.50
2017-08-14T02:46:04.488Z,21.60
2017-08-14T02:48:32.026Z,21.60
2017-08-14T02:50:59.557Z,21.60
2017-08-14T02:53:27.070Z,21.50
2017-08-14T02:55:54.612Z,21.50
2017-08-14T02:58:22.114Z,21.40
2017-08-14T03:00:49.658Z,21.50
2017-08-14T03:03:17.152Z,21.50
2017-08-14T03:05:44.680Z,21.60
2017-08-14T03:08:12.250Z,21.60
2017-08-14T03:10:39.759Z,21.60
2017-08-14T03:13:07.284Z,21.50
2017-08-14T03:15:34.803Z,21.50
2017-08-14T03:18:02.352Z,21.50
2017-08-14T03:20:29.899Z,21.40
2017-08-14T03:22:57.396Z,21.40
2017-08-14T03:25:24.973Z,21.40
2017-08-14T03:27:52.479Z,21.40
2017-08-14T03:30:19.977Z,21.40
2017-08-14T03:32:47.503Z,21.40
2017-08-14T03:35:15.027Z,21.40
2017-08-14T03:37:42.616Z,21.40
2017-08-14T03:40:10.111Z,21.40
2017-08-14T03:42:37.641Z,21.50
2017-08-14T03:45:05.252Z,21.50
2017-08-14T03:47:32.753Z,21.50
2017-08-14T03:50:00.252Z,21.50
2017-08-14T03:52:27.777Z,21.60
2017-08-14T03:54:55.281Z,21.60
2017-08-14T03:57:22.834Z,21.60
2017-08-14T03:59:50.356Z,21.60
2017-08-14T04:02:17.920Z,21.60
2017-08-14T04:04:45.446Z,21.60
2017-08-14T04:07:12.939Z,21.50
2017-08-14T04:09:40.455Z,21.50
2017-08-14T04:12:07.959Z,21.40
2017-08-14T04:14:35.538Z,21.50
2017-08-14T04:17:03.057Z,21.50
2017-08-14T04:19:30.633Z,21.40
2017-08-14T04:21:58.124Z,21.40
2017-08-14T04:24:25.624Z,21.30
2017-08-14T04:26:53.147Z,21.20
2017-08-14T04:29:20.661Z,21.10
2017-08-14T04:31:48.211Z,21.10
2017-08-14T04:34:15.753Z,21.10
2017-08-14T04:36:43.271Z,21.00
2017-08-14T04:39:10.770Z,21.10
2017-08-14T04:41:38.301Z,21.10
2017-08-14T04:44:05.832Z,21.10
2017-08-14T04:46:33.392Z,21.10
2017-08-14T04:49:00.875Z,21.10
2017-08-14T04:51:28.372Z,21.20
2017-08-14T04:53:55.903Z,21.20
2017-08-14T04:56:23.495Z,21.30
2017-08-14T04:58:51.434Z,21.20
2017-08-14T05:01:18.934Z,21.20
2017-08-14T05:03:46.588Z,21.20
2017-08-14T05:06:14.184Z,21.20
2017-08-14T05:08:42.044Z,21.30
2017-08-14T05:11:09.615Z,21.30
2017-08-14T05:13:37.123Z,21.40
2017-08-14T05:16:08.620Z,21.50
2017-08-14T05:18:36.132Z,21.50
2017-08-14T05:21:04.480Z,21.50
2017-08-14T05:23:32.027Z,21.50
2017-08-14T05:25:59.555Z,21.50
2017-08-14T05:28:27.066Z,21.50
2017-08-14T05:30:54.629Z,21.60
2017-08-14T05:33:22.189Z,21.60
2017-08-14T05:35:49.724Z,21.50
2017-08-14T05:38:17.934Z,21.60
2017-08-14T05:40:46.298Z,21.60
2017-08-14T05:43:13.798Z,21.70
2017-08-14T05:45:41.319Z,21.70
2017-08-14T05:48:08.925Z,21.70
2017-08-14T05:50:36.429Z,21.70
2017-08-14T05:53:03.932Z,21.80
2017-08-14T05:55:31.458Z,21.80
2017-08-14T05:57:58.942Z,21.80
2017-08-14T06:00:26.479Z,21.80
2017-08-14T06:02:54.067Z,21.90
2017-08-14T06:05:21.601Z,22.00
2017-08-14T06:07:49.153Z,22.00
2017-08-14T06:10:17.034Z,22.00
2017-08-14T06:12:44.543Z,22.00
2017-08-14T06:15:12.039Z,22.00
2017-08-14T06:17:39.613Z,22.10
2017-08-14T06:20:07.162Z,22.10
2017-08-14T06:22:35.033Z,22.10
2017-08-14T06:25:02.673Z,22.10
2017-08-14T06:27:30.225Z,22.20
2017-08-14T06:29:57.836Z,22.20
2017-08-14T06:32:25.372Z,22.30
2017-08-14T06:34:52.940Z,22.40
2017-08-14T06:37:20.456Z,22.40
2017-08-14T06:39:48.018Z,22.50
2017-08-14T06:42:16.497Z,22.60
2017-08-14T06:44:46.926Z,22.60
2017-08-14T06:47:15.246Z,22.60
2017-08-14T06:49:42.731Z,22.70
2017-08-14T06:52:10.272Z,22.70
2017-08-14T06:54:37.775Z,22.70
2017-08-14T06:57:06.188Z,22.70
2017-08-14T06:59:33.709Z,22.70
2017-08-14T07:02:01.571Z,22.70
2017-08-14T07:04:29.094Z,22.70
2017-08-14T07:06:56.605Z,22.70
2017-08-14T07:09:24.163Z,22.70
2017-08-14T07:11:51.712Z,22.50
2017-08-14T07:14:19.274Z,22.50
2017-08-14T07:16:46.758Z,22.50
2017-08-14T07:19:14.323Z,22.60
2017-08-14T07:21:41.844Z,22.60
2017-08-14T07:24:09.350Z,22.70
2017-08-14T07:26:36.892Z,22.70
2017-08-14T07:29:04.384Z,22.70
2017-08-14T07:31:31.931Z,22.80
2017-08-14T07:33:59.451Z,22.80
2017-08-14T07:36:27.045Z,22.80
2017-08-14T07:38:54.544Z,22.90
2017-08-14T07:41:22.068Z,22.80
2017-08-14T07:43:49.659Z,22.80
2017-08-14T07:46:17.169Z,22.80
2017-08-14T07:48:44.725Z,22.90
2017-08-14T07:51:12.239Z,22.90
2017-08-14T07:53:39.771Z,22.90
2017-08-14T07:56:07.267Z,23.00
2017-08-14T07:58:34.866Z,23.00
2017-08-14T08:01:02.404Z,23.00
2017-08-14T08:03:31.721Z,23.10
2017-08-14T08:05:59.270Z,23.10
2017-08-14T08:08:26.792Z,23.00
2017-08-14T08:10:54.362Z,23.00
2017-08-14T08:13:21.920Z,23.00
2017-08-14T08:15:49.459Z,23.10
2017-08-14T08:18:16.997Z,23.10
2017-08-14T08:20:45.627Z,23.20
2017-08-14T08:23:13.268Z,23.20
2017-08-14T08:25:40.806Z,23.30
2017-08-14T08:28:08.351Z,23.30
2017-08-14T08:30:35.923Z,23.40
2017-08-14T08:33:03.539Z,23.40
2017-08-14T08:35:31.031Z,23.40
2017-08-14T08:37:58.570Z,23.40
2017-08-14T08:40:26.092Z,23.40
2017-08-14T08:42:53.623Z,23.40
2017-08-14T08:45:21.503Z,23.50
2017-08-14T08:47:49.019Z,23.50
2017-08-14T08:50:16.542Z,23.60
2017-08-14T08:52:44.112Z,23.60
2017-08-14T08:55:11.639Z,23.70
2017-08-14T08:57:39.174Z,23.70
2017-08-14T09:00:06.681Z,23.80
2017-08-14T09:02:34.214Z,23.70
2017-08-14T09:05:02.058Z,23.80
2017-08-14T09:07:29.711Z,23.80
2017-08-14T09:09:57.228Z,23.80
2017-08-14T09:12:24.752Z,23.70
2017-08-14T09:14:52.309Z,23.80
2017-08-14T09:17:19.863Z,23.90
2017-08-14T09:19:47.422Z,24.00
2017-08-14T09:22:14.954Z,24.10
2017-08-14T09:24:43.486Z,24.10
2017-08-14T09:27:11.029Z,24.00
2017-08-14T09:29:38.557Z,24.00
2017-08-14T09:32:06.103Z,24.10
2017-08-14T09:34:33.645Z,24.20
2017-08-14T09:37:01.155Z,24.20
2017-08-14T09:39:28.688Z,24.20
2017-08-14T09:41:56.174Z,24.20
2017-08-14T09:44:23.719Z,24.30
2017-08-14T09:46:51.222Z,24.30
2017-08-14T09:49:19.126Z,24.40
2017-08-14T09:51:46.629Z,24.60
2017-08-14T09:54:14.744Z,24.60
2017-08-14T09:56:42.357Z,24.60
2017-08-14T09:59:09.898Z,24.70
2017-08-14T10:01:37.387Z,24.70
2017-08-14T10:04:04.890Z,24.70
2017-08-14T10:06:32.436Z,24.80
2017-08-14T10:08:59.992Z,24.80
2017-08-14T10:11:27.502Z,25.00
2017-08-14T10:13:55.008Z,25.00
2017-08-14T10:16:22.631Z,25.00
2017-08-14T10:18:50.133Z,25.10
2017-08-14T10:21:17.874Z,25.10
2017-08-14T10:23:45.434Z,25.10
2017-08-14T10:26:12.958Z,25.00
2017-08-14T10:28:40.489Z,25.00
2017-08-14T10:31:08.005Z,25.00
2017-08-14T10:33:35.512Z,25.10
2017-08-14T10:36:03.103Z,25.20
2017-08-14T10:38:30.621Z,25.10
2017-08-14T10:40:58.173Z,25.10
2017-08-14T10:43:25.720Z,25.20
2017-08-14T10:45:53.608Z,25.20
2017-08-14T10:48:21.145Z,25.40
2017-08-14T10:50:48.650Z,25.50
2017-08-14T10:53:16.227Z,25.40
2017-08-14T10:55:43.739Z,25.50
2017-08-14T10:58:11.341Z,25.70
2017-08-14T11:00:38.999Z,25.70
2017-08-14T11:03:06.533Z,25.70
2017-08-14T11:05:34.071Z,25.90
2017-08-14T11:08:01.653Z,26.00
2017-08-14T11:10:29.179Z,26.10
2017-08-14T11:12:56.729Z,26.20
2017-08-14T11:15:24.296Z,26.20
2017-08-14T11:17:51.815Z,26.30
2017-08-14T11:20:19.324Z,26.40
2017-08-14T11:22:46.902Z,26.40
2017-08-14T11:25:14.396Z,26.40
2017-08-14T11:27:41.939Z,26.50
2017-08-14T11:30:09.513Z,26.50
2017-08-14T11:32:37.008Z,26.60
2017-08-14T11:35:04.590Z,26.50
2017-08-14T11:37:32.189Z,26.60
2017-08-14T11:39:59.705Z,26.60
2017-08-14T11:42:27.234Z,26.60
2017-08-14T11:44:54.762Z,26.70
2017-08-14T11:47:22.290Z,26.60
2017-08-14T11:49:49.798Z,26.60
2017-08-14T11:52:17.351Z,26.50
2017-08-14T11:54:44.890Z,26.40
2017-08-14T11:57:12.439Z,26.40
2017-08-14T11:59:39.942Z,26.40
2017-08-14T12:02:07.486Z,26.60
2017-08-14T12:04:35.089Z,26.70
2017-08-14T12:07:02.622Z,26.90
2017-08-14T12:09:30.133Z,27.10
2017-08-14T12:11:57.742Z,27.20
2017-08-14T12:14:25.560Z,27.40
2017-08-14T12:16:53.089Z,27.50
2017-08-14T12:19:20.596Z,27.70
2017-08-14T12:21:48.155Z,27.80
2017-08-14T12:24:15.824Z,28.00
2017-08-14T12:26:43.452Z,28.00
2017-08-14T12:29:10.965Z,28.00
2017-08-14T12:31:38.483Z,28.10
2017-08-14T12:34:06.016Z,28.20
2017-08-14T12:36:33.547Z,28.10
2017-08-14T12:39:01.094Z,28.10
2017-08-14T12:41:28.640Z,28.10
2017-08-14T12:43:56.189Z,28.00
2017-08-14T12:46:23.724Z,27.90
2017-08-14T12:48:51.228Z,27.80
2017-08-14T12:51:18.826Z,27.60
2017-08-14T12:53:46.323Z,27.80
2017-08-14T12:56:13.844Z,27.90
2017-08-14T12:58:41.403Z,28.00
2017-08-14T13:01:08.958Z,28.00
2017-08-14T13:03:36.447Z,28.00
2017-08-14T13:06:04.020Z,28.10
2017-08-14T13:08:31.578Z,28.10
2017-08-14T13:10:59.070Z,28.20
2017-08-14T13:13:26.605Z,28.20
2017-08-14T13:15:54.090Z,28.30
2017-08-14T13:18:21.655Z,28.30
2017-08-14T13:20:49.188Z,28.50
2017-08-14T13:23:16.818Z,28.50
2017-08-14T13:25:44.325Z,28.50
2017-08-14T13:28:11.834Z,28.50
2017-08-14T13:30:39.370Z,28.40
2017-08-14T13:33:06.880Z,28.50
2017-08-14T13:35:34.404Z,28.60
2017-08-14T13:38:01.975Z,28.70
2017-08-14T13:40:29.504Z,28.70
2017-08-14T13:42:57.035Z,28.80
2017-08-14T13:45:24.535Z,28.90
2017-08-14T13:47:52.126Z,29.00
2017-08-14T13:50:19.654Z,29.00
2017-08-14T13:52:47.201Z,29.00
2017-08-14T13:55:15.064Z,29.10
2017-08-14T13:57:42.622Z,29.20
2017-08-14T14:00:10.165Z,29.20
2017-08-14T14:02:37.803Z,29.30
2017-08-14T14:05:05.540Z,29.30
2017-08-14T14:07:33.081Z,29.30
2017-08-14T14:10:00.589Z,29.30
2017-08-14T14:12:28.090Z,29.40
2017-08-14T14:14:55.644Z,29.40
2017-08-14T14:17:23.150Z,29.50
2017-08-14T14:19:50.695Z,29.70
2017-08-14T14:22:18.251Z,29.80
2017-08-14T14:24:45.743Z,29.90
2017-08-14T14:27:13.335Z,29.90
2017-08-14T14:29:40.847Z,30.00
2017-08-14T14:32:08.352Z,30.10
2017-08-14T14:34:35.904Z,30.30
2017-08-14T14:37:03.427Z,30.40
2017-08-14T14:39:30.932Z,30.50
2017-08-14T14:41:58.473Z,30.60
2017-08-14T14:44:25.987Z,30.70
2017-08-14T14:46:53.541Z,30.80
2017-08-14T14:49:21.083Z,30.80
2017-08-14T14:51:48.641Z,30.80
2017-08-14T14:54:16.131Z,30.80
2017-08-14T14:56:43.655Z,30.70
2017-08-14T14:59:11.176Z,30.50
2017-08-14T15:01:38.735Z,30.50
2017-08-14T15:04:06.249Z,30.40
2017-08-14T15:06:33.796Z,30.30
2017-08-14T15:09:01.368Z,30.30
2017-08-14T15:11:28.940Z,30.10
2017-08-14T15:13:56.490Z,30.00
2017-08-14T15:16:24.027Z,29.90
2017-08-14T15:18:51.547Z,29.70
2017-08-14T15:21:19.051Z,29.60
2017-08-14T15:23:46.600Z,29.50
2017-08-14T15:26:14.136Z,29.30
2017-08-14T15:28:41.687Z,29.20
2017-08-14T15:31:09.203Z,29.10
2017-08-14T15:33:36.793Z,28.90
2017-08-14T15:36:04.292Z,29.00
2017-08-14T15:38:31.796Z,29.00
2017-08-14T15:40:59.365Z,29.20
2017-08-14T15:43:26.906Z,29.30
2017-08-14T15:45:54.459Z,29.50
2017-08-14T15:48:22.025Z,29.60
2017-08-14T15:50:49.585Z,29.80
2017-08-14T15:53:17.411Z,29.90
2017-08-14T15:55:44.984Z,30.00
2017-08-14T15:58:12.543Z,30.10
2017-08-14T16:00:40.091Z,30.10
2017-08-14T16:03:07.581Z,30.20
2017-08-14T16:05:35.133Z,30.40
2017-08-14T16:08:02.701Z,30.40
2017-08-14T16:10:30.223Z,30.40
2017-08-14T16:12:57.753Z,30.50
2017-08-14T16:15:25.270Z,30.70
2017-08-14T16:17:53.459Z,30.80
2017-08-14T16:20:20.961Z,30.70
2017-08-14T16:22:48.461Z,30.70
2017-08-14T16:25:16.111Z,30.60
2017-08-14T16:27:43.619Z,30.50
2017-08-14T16:30:11.132Z,30.50
2017-08-14T16:32:38.693Z,30.50
2017-08-14T16:35:06.650Z,30.40
2017-08-14T16:37:34.187Z,30.30
2017-08-14T16:40:01.676Z,30.10
2017-08-14T16:42:29.214Z,30.00
2017-08-14T16:44:56.712Z,29.90
2017-08-14T16:47:24.258Z,29.90
2017-08-14T16:49:51.808Z,29.70
2017-08-14T16:52:19.341Z,29.70
2017-08-14T16:54:46.936Z,29.60
2017-08-14T16:57:14.525Z,29.60
2017-08-14T16:59:42.090Z,29.50
2017-08-14T17:02:09.614Z,29.40
2017-08-14T17:04:37.197Z,29.30
2017-08-14T17:07:04.744Z,29.30
2017-08-14T17:09:32.263Z,29.30
2017-08-14T17:11:59.814Z,29.30
2017-08-14T17:14:27.300Z,29.40
2017-08-14T17:16:54.842Z,29.40
2017-08-14T17:19:22.338Z,29.30
2017-08-14T17:21:49.833Z,29.30
2017-08-14T17:24:17.372Z,29.30
2017-08-14T17:26:44.944Z,29.20
2017-08-14T17:29:12.436Z,29.20
2017-08-14T17:31:39.997Z,29.20
2017-08-14T17:34:07.502Z,29.10
2017-08-14T17:36:35.038Z,29.00
2017-08-14T17:39:02.637Z,28.90
2017-08-14T17:41:30.151Z,28.90
2017-08-14T17:43:57.712Z,28.80
2017-08-14T17:46:25.267Z,28.70
2017-08-14T17:48:52.796Z,28.70
2017-08-14T17:51:20.359Z,28.60
2017-08-14T17:53:47.947Z,28.50
2017-08-14T17:56:16.682Z,28.50
2017-08-14T17:58:44.197Z,28.40
2017-08-14T18:01:11.843Z,28.30
2017-08-14T18:03:39.392Z,28.20
2017-08-14T18:06:06.900Z,28.20
2017-08-14T18:08:34.449Z,28.10
2017-08-14T18:11:01.965Z,28.10
2017-08-14T18:13:29.511Z,28.00
2017-08-14T18:15:57.060Z,27.90
2017-08-14T18:18:24.564Z,27.90
2017-08-14T18:20:52.107Z,27.80
2017-08-14T18:23:19.665Z,27.80
2017-08-14T18:25:47.179Z,27.70
2017-08-14T18:28:14.747Z,27.70
2017-08-14T18:30:42.240Z,27.60
2017-08-14T18:33:10.990Z,27.50
2017-08-14T18:35:38.549Z,27.50
2017-08-14T18:38:06.143Z,27.50
2017-08-14T18:40:33.666Z,27.30
2017-08-14T18:43:01.182Z,27.30
2017-08-14T18:45:28.790Z,27.30
2017-08-14T18:47:56.343Z,27.20
2017-08-14T18:50:24.791Z,27.20
2017-08-14T18:52:52.289Z,27.20
2017-08-14T18:55:19.811Z,27.20
2017-08-14T18:57:47.370Z,27.10
2017-08-14T19:00:14.946Z,27.10
2017-08-14T19:02:42.509Z,27.00
2017-08-14T19:05:10.095Z,27.00
2017-08-14T19:07:38.257Z,27.00
2017-08-14T19:10:05.306Z,27.00
2017-08-14T19:12:32.876Z,26.90
2017-08-14T19:15:00.443Z,26.90
2017-08-14T19:17:28.009Z,26.90
2017-08-14T19:19:55.568Z,26.80
2017-08-14T19:22:23.150Z,26.70
2017-08-14T19:24:50.652Z,26.80
2017-08-14T19:27:18.192Z,26.70
2017-08-14T19:29:46.776Z,26.70
2017-08-14T19:32:14.594Z,26.70
2017-08-14T19:34:42.243Z,26.70
2017-08-14T19:37:09.939Z,26.70
2017-08-14T19:39:37.615Z,26.60
2017-08-14T19:42:05.230Z,26.60
2017-08-14T19:44:32.931Z,26.60
2017-08-14T19:47:01.535Z,26.50
2017-08-14T19:49:30.158Z,26.50
2017-08-14T19:51:58.048Z,26.50
2017-08-14T19:54:25.825Z,26.40
2017-08-14T19:56:53.528Z,26.40
2017-08-14T19:59:21.235Z,26.30
2017-08-14T20:01:48.858Z,26.30
2017-08-14T20:04:16.470Z,26.30
2017-08-14T20:06:45.169Z,26.20
2017-08-14T20:09:12.877Z,26.20
2017-08-14T20:11:40.535Z,26.10
2017-08-14T20:14:08.241Z,26.10
2017-08-14T20:16:35.899Z,26.10
2017-08-14T20:19:03.468Z,26.00
2017-08-14T20:21:31.017Z,26.00
2017-08-14T20:23:58.530Z,26.00
2017-08-14T20:26:26.105Z,26.00
2017-08-14T20:28:53.652Z,26.00
2017-08-14T20:31:21.207Z,25.90
2017-08-14T20:33:48.741Z,25.90
2017-08-14T20:36:16.705Z,25.90
2017-08-14T20:38:44.203Z,25.80
2017-08-14T20:41:11.715Z,25.70
2017-08-14T20:43:39.280Z,25.70
2017-08-14T20:46:06.870Z,25.70
2017-08-14T20:48:34.415Z,25.70
2017-08-14T20:51:01.915Z,25.70
2017-08-14T20:53:29.452Z,25.70
2017-08-14T20:55:56.979Z,25.60
2017-08-14T20:58:24.577Z,25.60
2017-08-14T21:00:52.096Z,25.60
2017-08-14T21:03:19.632Z,25.60
2017-08-14T21:05:47.183Z,25.50
2017-08-14T21:08:14.734Z,25.50
2017-08-14T21:10:42.345Z,25.50
2017-08-14T21:13:09.861Z,25.40
2017-08-14T21:15:37.372Z,25.30
2017-08-14T21:18:04.917Z,25.30
2017-08-14T21:20:32.404Z,25.30
2017-08-14T21:22:59.940Z,25.30
2017-08-14T21:25:27.468Z,25.30
2017-08-14T21:27:54.982Z,25.30
2017-08-14T21:30:22.565Z,25.30
2017-08-14T21:32:50.088Z,25.20
2017-08-14T21:35:17.616Z,25.20
2017-08-14T21:37:45.180Z,25.20
2017-08-14T21:40:12.752Z,25.20
2017-08-14T21:42:40.245Z,25.10
2017-08-14T21:45:07.773Z,25.10
2017-08-14T21:47:35.341Z,25.10
2017-08-14T21:50:02.929Z,25.10
2017-08-14T21:52:30.476Z,25.00
2017-08-14T21:54:57.974Z,25.00
2017-08-14T21:57:25.537Z,25.00
2017-08-14T21:59:53.056Z,25.00
2017-08-14T22:02:20.608Z,25.00
2017-08-14T22:04:48.130Z,24.90
2017-08-14T22:07:16.250Z,24.90
2017-08-14T22:09:43.847Z,24.90
2017-08-14T22:12:11.368Z,24.80
2017-08-14T22:14:38.856Z,24.80
2017-08-14T22:17:06.921Z,24.70
2017-08-14T22:19:34.451Z,24.80
2017-08-14T22:22:02.006Z,24.70
2017-08-14T22:24:29.513Z,24.70
2017-08-14T22:26:57.934Z,24.70
2017-08-14T22:29:25.451Z,24.70
2017-08-14T22:31:53.698Z,24.60
2017-08-14T22:34:21.270Z,24.60
2017-08-14T22:36:48.769Z,24.60
2017-08-14T22:39:16.311Z,24.60
2017-08-14T22:41:43.841Z,24.60
2017-08-14T22:44:11.398Z,24.60
2017-08-14T22:46:38.931Z,24.50
2017-08-14T22:49:06.428Z,24.50
2017-08-14T22:51:33.968Z,24.50
2017-08-14T22:54:01.457Z,24.50
2017-08-14T22:56:29.003Z,24.50
2017-08-14T22:58:56.500Z,24.40
2017-08-14T23:01:24.075Z,24.40
2017-08-14T23:03:51.598Z,24.40
2017-08-14T23:06:19.098Z,24.30
2017-08-14T23:08:46.632Z,24.30
2017-08-14T23:11:14.116Z,24.30
2017-08-14T23:13:41.685Z,24.20
2017-08-14T23:16:09.186Z,24.30
2017-08-14T23:18:36.706Z,24.20
2017-08-14T23:21:04.253Z,24.20
2017-08-14T23:23:31.754Z,24.20
2017-08-14T23:25:59.272Z,24.20
2017-08-14T23:28:26.814Z,24.20
2017-08-14T23:30:54.334Z,24.20
2017-08-14T23:33:21.890Z,24.20
2017-08-14T23:35:49.435Z,24.10
2017-08-14T23:38:17.559Z,24.10
2017-08-14T23:40:45.106Z,24.10
2017-08-14T23:43:12.640Z,24.10
2017-08-14T23:45:40.242Z,24.10
2017-08-14T23:48:08.862Z,24.10
2017-08-14T23:50:36.364Z,24.00
2017-08-14T23:53:03.912Z,24.00
2017-08-14T23:55:31.432Z,24.00
2017-08-14T23:57:58.922Z,24.00
